sensor_id;sensor_type;location;lat;lon;timestamp;P1;durP1;ratioP1;P2;durP2;ratioP2
61291;SDS011;47165;42.664;23.368;2023-06-10T00:01:59;21.30;;;4.18;;
61291;SDS011;47165;42.664;23.368;2023-06-10T00:04:25;5.40;;;4.18;;
61291;SDS011;47165;42.664;23.368;2023-06-10T00:06:52;9.75;;;4.38;;
61291;SDS011;47165;42.664;23.368;2023-06-10T00:09:18;6.55;;;4.72;;
61291;SDS011;47165;42.664;23.368;2023-06-10T00:11:46;6.40;;;4.28;;
61291;SDS011;47165;42.664;23.368;2023-06-10T00:14:11;7.07;;;4.55;;
61291;SDS011;47165;42.664;23.368;2023-06-10T00:16:37;5.78;;;3.92;;
61291;SDS011;47165;42.664;23.368;2023-06-10T00:19:03;7.25;;;4.28;;
61291;SDS011;47165;42.664;23.368;2023-06-10T00:21:30;4.57;;;3.80;;
61291;SDS011;47165;42.664;23.368;2023-06-10T00:27:31;5.13;;;3.88;;
61291;SDS011;47165;42.664;23.368;2023-06-10T00:30:03;5.93;;;4.00;;
61291;SDS011;47165;42.664;23.368;2023-06-10T00:32:31;5.90;;;4.47;;
61291;SDS011;47165;42.664;23.368;2023-06-10T00:35:00;7.57;;;4.95;;
61291;SDS011;47165;42.664;23.368;2023-06-10T00:37:26;7.15;;;4.75;;
61291;SDS011;47165;42.664;23.368;2023-06-10T00:39:53;8.63;;;4.93;;
61291;SDS011;47165;42.664;23.368;2023-06-10T00:42:19;6.38;;;4.28;;
61291;SDS011;47165;42.664;23.368;2023-06-10T00:44:44;6.65;;;4.90;;
61291;SDS011;47165;42.664;23.368;2023-06-10T00:47:10;8.18;;;5.30;;
61291;SDS011;47165;42.664;23.368;2023-06-10T00:49:36;8.25;;;5.15;;
61291;SDS011;47165;42.664;23.368;2023-06-10T00:52:02;7.82;;;4.40;;
61291;SDS011;47165;42.664;23.368;2023-06-10T00:54:29;6.75;;;4.70;;
61291;SDS011;47165;42.664;23.368;2023-06-10T00:56:55;6.43;;;4.75;;
61291;SDS011;47165;42.664;23.368;2023-06-10T00:59:21;8.10;;;5.18;;
61291;SDS011;47165;42.664;23.368;2023-06-10T01:01:48;7.10;;;5.00;;
61291;SDS011;47165;42.664;23.368;2023-06-10T01:04:13;7.88;;;5.00;;
61291;SDS011;47165;42.664;23.368;2023-06-10T01:09:20;8.00;;;4.82;;
61291;SDS011;47165;42.664;23.368;2023-06-10T01:11:58;8.52;;;4.47;;
61291;SDS011;47165;42.664;23.368;2023-06-10T01:14:28;7.45;;;4.93;;
61291;SDS011;47165;42.664;23.368;2023-06-10T01:16:54;9.18;;;6.13;;
61291;SDS011;47165;42.664;23.368;2023-06-10T01:19:19;7.80;;;5.40;;
61291;SDS011;47165;42.664;23.368;2023-06-10T01:21:45;8.98;;;5.38;;
61291;SDS011;47165;42.664;23.368;2023-06-10T01:24:14;8.13;;;4.80;;
61291;SDS011;47165;42.664;23.368;2023-06-10T01:26:43;8.73;;;5.45;;
61291;SDS011;47165;42.664;23.368;2023-06-10T01:29:19;7.05;;;4.65;;
61291;SDS011;47165;42.664;23.368;2023-06-10T01:31:53;8.75;;;5.88;;
61291;SDS011;47165;42.664;23.368;2023-06-10T01:34:54;10.20;;;5.28;;
61291;SDS011;47165;42.664;23.368;2023-06-10T01:37:21;9.77;;;6.10;;
61291;SDS011;47165;42.664;23.368;2023-06-10T01:39:51;7.47;;;6.50;;
61291;SDS011;47165;42.664;23.368;2023-06-10T01:42:18;7.35;;;5.60;;
61291;SDS011;47165;42.664;23.368;2023-06-10T01:44:44;12.80;;;6.63;;
61291;SDS011;47165;42.664;23.368;2023-06-10T01:47:09;10.98;;;6.85;;
61291;SDS011;47165;42.664;23.368;2023-06-10T01:49:35;9.15;;;6.20;;
61291;SDS011;47165;42.664;23.368;2023-06-10T01:52:00;11.65;;;7.05;;
61291;SDS011;47165;42.664;23.368;2023-06-10T01:54:26;7.97;;;5.07;;
61291;SDS011;47165;42.664;23.368;2023-06-10T01:56:51;9.07;;;5.22;;
61291;SDS011;47165;42.664;23.368;2023-06-10T01:59:17;8.57;;;6.50;;
61291;SDS011;47165;42.664;23.368;2023-06-10T02:01:42;11.55;;;6.82;;
61291;SDS011;47165;42.664;23.368;2023-06-10T02:04:08;9.43;;;6.82;;
61291;SDS011;47165;42.664;23.368;2023-06-10T02:06:33;8.85;;;5.70;;
61291;SDS011;47165;42.664;23.368;2023-06-10T02:09:00;14.57;;;7.47;;
61291;SDS011;47165;42.664;23.368;2023-06-10T02:11:25;14.18;;;7.30;;
61291;SDS011;47165;42.664;23.368;2023-06-10T02:13:51;11.13;;;5.47;;
61291;SDS011;47165;42.664;23.368;2023-06-10T02:16:17;8.45;;;4.93;;
61291;SDS011;47165;42.664;23.368;2023-06-10T02:18:43;8.52;;;5.57;;
61291;SDS011;47165;42.664;23.368;2023-06-10T02:21:09;8.55;;;5.70;;
61291;SDS011;47165;42.664;23.368;2023-06-10T02:23:35;10.32;;;6.03;;
61291;SDS011;47165;42.664;23.368;2023-06-10T02:26:01;11.88;;;7.10;;
61291;SDS011;47165;42.664;23.368;2023-06-10T02:28:27;9.60;;;5.72;;
61291;SDS011;47165;42.664;23.368;2023-06-10T02:30:52;7.60;;;5.32;;
61291;SDS011;47165;42.664;23.368;2023-06-10T02:33:18;6.95;;;4.90;;
61291;SDS011;47165;42.664;23.368;2023-06-10T02:35:44;9.05;;;5.85;;
61291;SDS011;47165;42.664;23.368;2023-06-10T02:38:10;10.18;;;6.38;;
61291;SDS011;47165;42.664;23.368;2023-06-10T02:40:36;7.55;;;5.40;;
61291;SDS011;47165;42.664;23.368;2023-06-10T02:43:01;10.88;;;5.82;;
61291;SDS011;47165;42.664;23.368;2023-06-10T02:45:27;8.68;;;4.78;;
61291;SDS011;47165;42.664;23.368;2023-06-10T02:47:52;9.48;;;6.30;;
61291;SDS011;47165;42.664;23.368;2023-06-10T02:50:17;7.40;;;5.03;;
61291;SDS011;47165;42.664;23.368;2023-06-10T02:52:43;11.02;;;6.10;;
61291;SDS011;47165;42.664;23.368;2023-06-10T02:55:08;9.70;;;5.85;;
61291;SDS011;47165;42.664;23.368;2023-06-10T02:57:34;7.55;;;5.18;;
61291;SDS011;47165;42.664;23.368;2023-06-10T03:00:00;8.65;;;5.35;;
61291;SDS011;47165;42.664;23.368;2023-06-10T03:02:27;12.23;;;7.22;;
61291;SDS011;47165;42.664;23.368;2023-06-10T03:04:54;8.95;;;5.80;;
61291;SDS011;47165;42.664;23.368;2023-06-10T03:07:20;8.35;;;5.82;;
61291;SDS011;47165;42.664;23.368;2023-06-10T03:09:46;17.00;;;6.30;;
61291;SDS011;47165;42.664;23.368;2023-06-10T03:12:12;8.27;;;5.47;;
61291;SDS011;47165;42.664;23.368;2023-06-10T03:14:37;9.48;;;5.57;;
61291;SDS011;47165;42.664;23.368;2023-06-10T03:17:04;10.35;;;5.25;;
61291;SDS011;47165;42.664;23.368;2023-06-10T03:19:31;8.52;;;5.28;;
61291;SDS011;47165;42.664;23.368;2023-06-10T03:22:07;7.13;;;5.10;;
61291;SDS011;47165;42.664;23.368;2023-06-10T03:24:36;7.38;;;5.05;;
61291;SDS011;47165;42.664;23.368;2023-06-10T03:27:01;11.77;;;5.97;;
61291;SDS011;47165;42.664;23.368;2023-06-10T03:29:30;9.07;;;6.25;;
61291;SDS011;47165;42.664;23.368;2023-06-10T03:31:55;10.98;;;6.68;;
61291;SDS011;47165;42.664;23.368;2023-06-10T03:34:21;9.57;;;6.18;;
61291;SDS011;47165;42.664;23.368;2023-06-10T03:36:48;9.70;;;6.05;;
61291;SDS011;47165;42.664;23.368;2023-06-10T03:39:14;9.50;;;5.88;;
61291;SDS011;47165;42.664;23.368;2023-06-10T03:41:40;9.55;;;5.57;;
61291;SDS011;47165;42.664;23.368;2023-06-10T03:44:05;10.40;;;5.35;;
61291;SDS011;47165;42.664;23.368;2023-06-10T03:46:31;8.20;;;5.22;;
61291;SDS011;47165;42.664;23.368;2023-06-10T03:48:56;6.80;;;5.15;;
61291;SDS011;47165;42.664;23.368;2023-06-10T03:51:22;8.18;;;5.40;;
61291;SDS011;47165;42.664;23.368;2023-06-10T03:53:48;13.80;;;6.10;;
61291;SDS011;47165;42.664;23.368;2023-06-10T03:56:13;8.77;;;5.75;;
61291;SDS011;47165;42.664;23.368;2023-06-10T03:58:38;9.65;;;6.05;;
61291;SDS011;47165;42.664;23.368;2023-06-10T04:01:04;7.75;;;5.38;;
61291;SDS011;47165;42.664;23.368;2023-06-10T04:03:29;7.70;;;5.38;;
61291;SDS011;47165;42.664;23.368;2023-06-10T04:05:54;6.78;;;4.72;;
61291;SDS011;47165;42.664;23.368;2023-06-10T04:08:20;7.57;;;5.05;;
61291;SDS011;47165;42.664;23.368;2023-06-10T04:10:45;5.45;;;4.68;;
61291;SDS011;47165;42.664;23.368;2023-06-10T04:13:11;8.60;;;5.47;;
61291;SDS011;47165;42.664;23.368;2023-06-10T04:15:36;5.22;;;4.05;;
61291;SDS011;47165;42.664;23.368;2023-06-10T04:18:02;8.27;;;5.45;;
61291;SDS011;47165;42.664;23.368;2023-06-10T04:20:28;10.40;;;5.32;;
61291;SDS011;47165;42.664;23.368;2023-06-10T04:22:53;11.02;;;5.30;;
61291;SDS011;47165;42.664;23.368;2023-06-10T04:25:19;8.52;;;4.18;;
61291;SDS011;47165;42.664;23.368;2023-06-10T04:27:45;6.05;;;4.68;;
61291;SDS011;47165;42.664;23.368;2023-06-10T04:30:10;9.32;;;5.10;;
61291;SDS011;47165;42.664;23.368;2023-06-10T04:32:36;7.20;;;4.70;;
61291;SDS011;47165;42.664;23.368;2023-06-10T04:35:02;7.88;;;3.90;;
61291;SDS011;47165;42.664;23.368;2023-06-10T04:37:27;7.45;;;4.88;;
61291;SDS011;47165;42.664;23.368;2023-06-10T04:39:54;8.27;;;4.35;;
61291;SDS011;47165;42.664;23.368;2023-06-10T04:42:19;7.65;;;4.47;;
61291;SDS011;47165;42.664;23.368;2023-06-10T04:44:45;8.05;;;4.78;;
61291;SDS011;47165;42.664;23.368;2023-06-10T04:47:10;5.85;;;4.50;;
61291;SDS011;47165;42.664;23.368;2023-06-10T04:49:36;6.82;;;4.25;;
61291;SDS011;47165;42.664;23.368;2023-06-10T04:52:01;5.60;;;4.25;;
61291;SDS011;47165;42.664;23.368;2023-06-10T04:54:29;6.75;;;4.43;;
61291;SDS011;47165;42.664;23.368;2023-06-10T04:56:54;6.05;;;4.32;;
61291;SDS011;47165;42.664;23.368;2023-06-10T04:59:19;8.63;;;4.45;;
61291;SDS011;47165;42.664;23.368;2023-06-10T05:01:45;9.18;;;4.88;;
61291;SDS011;47165;42.664;23.368;2023-06-10T05:04:10;5.47;;;4.07;;
61291;SDS011;47165;42.664;23.368;2023-06-10T05:06:36;7.45;;;4.80;;
61291;SDS011;47165;42.664;23.368;2023-06-10T05:09:01;6.90;;;4.68;;
61291;SDS011;47165;42.664;23.368;2023-06-10T05:11:27;7.28;;;5.07;;
61291;SDS011;47165;42.664;23.368;2023-06-10T05:13:52;11.40;;;5.13;;
61291;SDS011;47165;42.664;23.368;2023-06-10T05:16:18;9.25;;;5.90;;
61291;SDS011;47165;42.664;23.368;2023-06-10T05:18:43;9.82;;;5.72;;
61291;SDS011;47165;42.664;23.368;2023-06-10T05:21:09;13.98;;;7.57;;
61291;SDS011;47165;42.664;23.368;2023-06-10T05:23:35;13.38;;;7.72;;
61291;SDS011;47165;42.664;23.368;2023-06-10T05:26:00;15.27;;;5.53;;
61291;SDS011;47165;42.664;23.368;2023-06-10T05:28:25;9.82;;;5.90;;
61291;SDS011;47165;42.664;23.368;2023-06-10T05:30:51;9.77;;;5.65;;
61291;SDS011;47165;42.664;23.368;2023-06-10T05:33:16;10.35;;;7.25;;
61291;SDS011;47165;42.664;23.368;2023-06-10T05:35:42;10.95;;;6.45;;
61291;SDS011;47165;42.664;23.368;2023-06-10T05:38:07;11.50;;;6.20;;
61291;SDS011;47165;42.664;23.368;2023-06-10T05:40:33;10.85;;;6.45;;
61291;SDS011;47165;42.664;23.368;2023-06-10T05:42:58;10.07;;;6.32;;
61291;SDS011;47165;42.664;23.368;2023-06-10T05:45:23;11.20;;;6.78;;
61291;SDS011;47165;42.664;23.368;2023-06-10T05:47:49;12.05;;;6.40;;
61291;SDS011;47165;42.664;23.368;2023-06-10T05:50:14;14.15;;;6.85;;
61291;SDS011;47165;42.664;23.368;2023-06-10T05:52:40;9.93;;;5.88;;
61291;SDS011;47165;42.664;23.368;2023-06-10T05:55:06;14.27;;;7.20;;
61291;SDS011;47165;42.664;23.368;2023-06-10T05:57:32;9.73;;;6.50;;
61291;SDS011;47165;42.664;23.368;2023-06-10T05:59:57;13.90;;;8.27;;
61291;SDS011;47165;42.664;23.368;2023-06-10T06:02:23;12.77;;;6.85;;
61291;SDS011;47165;42.664;23.368;2023-06-10T06:04:48;14.77;;;7.75;;
61291;SDS011;47165;42.664;23.368;2023-06-10T06:07:14;12.82;;;8.38;;
61291;SDS011;47165;42.664;23.368;2023-06-10T06:09:39;15.40;;;7.45;;
61291;SDS011;47165;42.664;23.368;2023-06-10T06:12:05;13.32;;;8.20;;
61291;SDS011;47165;42.664;23.368;2023-06-10T06:14:32;11.80;;;7.40;;
61291;SDS011;47165;42.664;23.368;2023-06-10T06:17:02;11.65;;;8.18;;
61291;SDS011;47165;42.664;23.368;2023-06-10T06:19:27;13.93;;;8.50;;
61291;SDS011;47165;42.664;23.368;2023-06-10T06:21:53;13.02;;;8.13;;
61291;SDS011;47165;42.664;23.368;2023-06-10T06:24:18;19.85;;;10.73;;
61291;SDS011;47165;42.664;23.368;2023-06-10T06:26:43;13.80;;;8.27;;
61291;SDS011;47165;42.664;23.368;2023-06-10T06:29:10;14.38;;;8.80;;
61291;SDS011;47165;42.664;23.368;2023-06-10T06:31:35;18.33;;;10.90;;
61291;SDS011;47165;42.664;23.368;2023-06-10T06:34:01;9.10;;;6.60;;
61291;SDS011;47165;42.664;23.368;2023-06-10T06:36:27;11.70;;;7.70;;
61291;SDS011;47165;42.664;23.368;2023-06-10T06:38:52;18.48;;;7.97;;
61291;SDS011;47165;42.664;23.368;2023-06-10T06:41:17;11.90;;;6.57;;
61291;SDS011;47165;42.664;23.368;2023-06-10T06:43:43;9.98;;;6.07;;
61291;SDS011;47165;42.664;23.368;2023-06-10T06:46:08;8.45;;;6.03;;
61291;SDS011;47165;42.664;23.368;2023-06-10T06:48:34;8.15;;;4.68;;
61291;SDS011;47165;42.664;23.368;2023-06-10T06:51:00;16.17;;;6.32;;
61291;SDS011;47165;42.664;23.368;2023-06-10T06:53:25;10.80;;;5.25;;
61291;SDS011;47165;42.664;23.368;2023-06-10T06:55:51;10.75;;;5.43;;
61291;SDS011;47165;42.664;23.368;2023-06-10T06:58:16;9.57;;;5.82;;
61291;SDS011;47165;42.664;23.368;2023-06-10T07:00:42;11.23;;;6.15;;
61291;SDS011;47165;42.664;23.368;2023-06-10T07:03:07;9.63;;;4.70;;
61291;SDS011;47165;42.664;23.368;2023-06-10T07:05:33;7.38;;;5.35;;
61291;SDS011;47165;42.664;23.368;2023-06-10T07:07:58;8.00;;;5.30;;
61291;SDS011;47165;42.664;23.368;2023-06-10T07:10:24;10.57;;;5.45;;
61291;SDS011;47165;42.664;23.368;2023-06-10T07:12:50;7.82;;;4.93;;
61291;SDS011;47165;42.664;23.368;2023-06-10T07:15:16;10.00;;;5.85;;
61291;SDS011;47165;42.664;23.368;2023-06-10T07:17:42;8.30;;;5.53;;
61291;SDS011;47165;42.664;23.368;2023-06-10T07:20:08;9.20;;;6.25;;
61291;SDS011;47165;42.664;23.368;2023-06-10T07:22:33;7.50;;;4.88;;
61291;SDS011;47165;42.664;23.368;2023-06-10T07:24:59;7.35;;;4.70;;
61291;SDS011;47165;42.664;23.368;2023-06-10T07:27:24;8.20;;;4.07;;
61291;SDS011;47165;42.664;23.368;2023-06-10T07:29:50;7.85;;;5.10;;
61291;SDS011;47165;42.664;23.368;2023-06-10T07:32:16;9.57;;;6.32;;
61291;SDS011;47165;42.664;23.368;2023-06-10T07:34:42;10.93;;;4.95;;
61291;SDS011;47165;42.664;23.368;2023-06-10T07:37:08;6.10;;;4.43;;
61291;SDS011;47165;42.664;23.368;2023-06-10T07:39:34;8.70;;;5.50;;
61291;SDS011;47165;42.664;23.368;2023-06-10T07:41:59;10.38;;;5.95;;
61291;SDS011;47165;42.664;23.368;2023-06-10T07:44:25;10.32;;;5.57;;
61291;SDS011;47165;42.664;23.368;2023-06-10T07:46:50;9.95;;;4.88;;
61291;SDS011;47165;42.664;23.368;2023-06-10T07:49:16;6.25;;;3.80;;
61291;SDS011;47165;42.664;23.368;2023-06-10T07:51:41;9.77;;;5.47;;
61291;SDS011;47165;42.664;23.368;2023-06-10T07:54:07;7.57;;;3.95;;
61291;SDS011;47165;42.664;23.368;2023-06-10T07:56:33;7.13;;;4.07;;
61291;SDS011;47165;42.664;23.368;2023-06-10T07:58:58;6.43;;;3.88;;
61291;SDS011;47165;42.664;23.368;2023-06-10T08:01:23;9.40;;;4.53;;
61291;SDS011;47165;42.664;23.368;2023-06-10T08:03:49;4.88;;;3.83;;
61291;SDS011;47165;42.664;23.368;2023-06-10T08:06:15;5.20;;;3.70;;
61291;SDS011;47165;42.664;23.368;2023-06-10T08:08:42;6.10;;;4.30;;
61291;SDS011;47165;42.664;23.368;2023-06-10T08:11:09;6.93;;;3.97;;
61291;SDS011;47165;42.664;23.368;2023-06-10T08:13:36;6.13;;;3.88;;
61291;SDS011;47165;42.664;23.368;2023-06-10T08:16:01;8.60;;;4.05;;
61291;SDS011;47165;42.664;23.368;2023-06-10T08:18:28;5.38;;;3.10;;
61291;SDS011;47165;42.664;23.368;2023-06-10T08:20:53;4.20;;;2.08;;
61291;SDS011;47165;42.664;23.368;2023-06-10T08:23:19;5.97;;;3.33;;
61291;SDS011;47165;42.664;23.368;2023-06-10T08:25:45;7.95;;;3.45;;
61291;SDS011;47165;42.664;23.368;2023-06-10T08:28:10;6.85;;;4.18;;
61291;SDS011;47165;42.664;23.368;2023-06-10T08:30:36;4.47;;;3.15;;
61291;SDS011;47165;42.664;23.368;2023-06-10T08:33:01;6.32;;;3.35;;
61291;SDS011;47165;42.664;23.368;2023-06-10T08:35:27;8.00;;;3.90;;
61291;SDS011;47165;42.664;23.368;2023-06-10T08:37:52;6.82;;;3.42;;
61291;SDS011;47165;42.664;23.368;2023-06-10T08:40:17;5.80;;;3.35;;
61291;SDS011;47165;42.664;23.368;2023-06-10T08:42:44;4.82;;;2.42;;
61291;SDS011;47165;42.664;23.368;2023-06-10T08:45:16;6.72;;;2.72;;
61291;SDS011;47165;42.664;23.368;2023-06-10T08:47:44;4.47;;;2.80;;
61291;SDS011;47165;42.664;23.368;2023-06-10T08:50:11;9.02;;;5.30;;
61291;SDS011;47165;42.664;23.368;2023-06-10T08:52:37;7.80;;;4.95;;
61291;SDS011;47165;42.664;23.368;2023-06-10T08:57:37;5.05;;;3.35;;
61291;SDS011;47165;42.664;23.368;2023-06-10T09:00:03;5.18;;;3.30;;
61291;SDS011;47165;42.664;23.368;2023-06-10T09:02:29;5.57;;;3.40;;
61291;SDS011;47165;42.664;23.368;2023-06-10T09:04:56;5.18;;;3.30;;
61291;SDS011;47165;42.664;23.368;2023-06-10T09:07:22;4.47;;;2.80;;
61291;SDS011;47165;42.664;23.368;2023-06-10T09:09:48;4.00;;;2.80;;
61291;SDS011;47165;42.664;23.368;2023-06-10T09:12:14;4.47;;;2.83;;
61291;SDS011;47165;42.664;23.368;2023-06-10T09:14:41;4.40;;;2.90;;
61291;SDS011;47165;42.664;23.368;2023-06-10T09:17:07;7.15;;;3.35;;
61291;SDS011;47165;42.664;23.368;2023-06-10T09:19:33;6.60;;;3.08;;
61291;SDS011;47165;42.664;23.368;2023-06-10T09:21:58;5.85;;;2.78;;
61291;SDS011;47165;42.664;23.368;2023-06-10T09:24:24;12.85;;;2.92;;
61291;SDS011;47165;42.664;23.368;2023-06-10T09:26:51;3.58;;;2.30;;
61291;SDS011;47165;42.664;23.368;2023-06-10T09:29:27;4.75;;;2.50;;
61291;SDS011;47165;42.664;23.368;2023-06-10T09:31:53;3.88;;;2.50;;
61291;SDS011;47165;42.664;23.368;2023-06-10T09:34:18;2.97;;;2.42;;
61291;SDS011;47165;42.664;23.368;2023-06-10T09:36:44;4.35;;;3.00;;
61291;SDS011;47165;42.664;23.368;2023-06-10T09:39:15;4.15;;;2.47;;
61291;SDS011;47165;42.664;23.368;2023-06-10T09:41:42;6.60;;;2.85;;
61291;SDS011;47165;42.664;23.368;2023-06-10T09:44:12;4.93;;;2.38;;
61291;SDS011;47165;42.664;23.368;2023-06-10T09:46:41;3.88;;;2.70;;
61291;SDS011;47165;42.664;23.368;2023-06-10T09:49:07;7.35;;;4.18;;
61291;SDS011;47165;42.664;23.368;2023-06-10T09:51:33;7.72;;;2.65;;
61291;SDS011;47165;42.664;23.368;2023-06-10T09:53:59;5.47;;;2.92;;
61291;SDS011;47165;42.664;23.368;2023-06-10T09:56:36;6.50;;;2.28;;
61291;SDS011;47165;42.664;23.368;2023-06-10T09:59:02;6.50;;;4.13;;
61291;SDS011;47165;42.664;23.368;2023-06-10T10:01:31;2.92;;;2.00;;
61291;SDS011;47165;42.664;23.368;2023-06-10T10:03:58;6.13;;;2.22;;
61291;SDS011;47165;42.664;23.368;2023-06-10T10:06:24;2.83;;;2.08;;
61291;SDS011;47165;42.664;23.368;2023-06-10T10:08:50;3.75;;;2.20;;
61291;SDS011;47165;42.664;23.368;2023-06-10T10:11:17;5.40;;;2.17;;
61291;SDS011;47165;42.664;23.368;2023-06-10T10:13:47;5.80;;;3.83;;
61291;SDS011;47165;42.664;23.368;2023-06-10T10:16:19;4.13;;;2.72;;
61291;SDS011;47165;42.664;23.368;2023-06-10T10:19:01;2.75;;;1.75;;
61291;SDS011;47165;42.664;23.368;2023-06-10T10:21:34;3.25;;;1.83;;
61291;SDS011;47165;42.664;23.368;2023-06-10T10:24:05;6.75;;;2.70;;
61291;SDS011;47165;42.664;23.368;2023-06-10T10:26:38;5.88;;;3.10;;
61291;SDS011;47165;42.664;23.368;2023-06-10T10:29:10;4.43;;;2.22;;
61291;SDS011;47165;42.664;23.368;2023-06-10T10:31:55;6.53;;;3.03;;
61291;SDS011;47165;42.664;23.368;2023-06-10T10:34:29;3.53;;;2.40;;
61291;SDS011;47165;42.664;23.368;2023-06-10T10:37:00;4.13;;;2.25;;
61291;SDS011;47165;42.664;23.368;2023-06-10T10:39:26;3.63;;;3.05;;
61291;SDS011;47165;42.664;23.368;2023-06-10T10:41:53;7.38;;;4.25;;
61291;SDS011;47165;42.664;23.368;2023-06-10T10:44:20;5.95;;;3.35;;
61291;SDS011;47165;42.664;23.368;2023-06-10T10:46:49;3.15;;;2.35;;
61291;SDS011;47165;42.664;23.368;2023-06-10T10:49:16;4.57;;;3.03;;
61291;SDS011;47165;42.664;23.368;2023-06-10T10:54:39;2.60;;;2.22;;
61291;SDS011;47165;42.664;23.368;2023-06-10T11:02:09;6.55;;;5.45;;
61291;SDS011;47165;42.664;23.368;2023-06-10T11:04:35;4.63;;;2.60;;
61291;SDS011;47165;42.664;23.368;2023-06-10T11:07:06;5.72;;;3.92;;
61291;SDS011;47165;42.664;23.368;2023-06-10T11:09:32;5.47;;;3.03;;
61291;SDS011;47165;42.664;23.368;2023-06-10T11:11:58;4.68;;;2.88;;
61291;SDS011;47165;42.664;23.368;2023-06-10T11:14:28;5.22;;;2.60;;
61291;SDS011;47165;42.664;23.368;2023-06-10T11:16:58;4.20;;;2.58;;
61291;SDS011;47165;42.664;23.368;2023-06-10T11:19:34;3.67;;;2.50;;
61291;SDS011;47165;42.664;23.368;2023-06-10T11:22:01;7.55;;;4.72;;
61291;SDS011;47165;42.664;23.368;2023-06-10T11:24:29;5.18;;;3.80;;
61291;SDS011;47165;42.664;23.368;2023-06-10T11:26:55;4.40;;;3.22;;
61291;SDS011;47165;42.664;23.368;2023-06-10T11:29:54;6.80;;;4.15;;
61291;SDS011;47165;42.664;23.368;2023-06-10T11:32:24;6.90;;;3.75;;
61291;SDS011;47165;42.664;23.368;2023-06-10T11:34:54;4.55;;;3.35;;
61291;SDS011;47165;42.664;23.368;2023-06-10T11:37:20;7.63;;;4.95;;
61291;SDS011;47165;42.664;23.368;2023-06-10T11:39:46;8.85;;;4.45;;
61291;SDS011;47165;42.664;23.368;2023-06-10T11:42:20;7.93;;;3.42;;
61291;SDS011;47165;42.664;23.368;2023-06-10T11:44:48;6.93;;;4.20;;
61291;SDS011;47165;42.664;23.368;2023-06-10T11:47:18;7.85;;;4.97;;
61291;SDS011;47165;42.664;23.368;2023-06-10T11:49:44;5.47;;;3.25;;
61291;SDS011;47165;42.664;23.368;2023-06-10T11:52:10;6.53;;;3.28;;
61291;SDS011;47165;42.664;23.368;2023-06-10T11:54:36;10.50;;;7.15;;
61291;SDS011;47165;42.664;23.368;2023-06-10T11:57:02;7.15;;;5.20;;
61291;SDS011;47165;42.664;23.368;2023-06-10T11:59:28;9.73;;;5.43;;
61291;SDS011;47165;42.664;23.368;2023-06-10T12:01:54;8.85;;;6.00;;
61291;SDS011;47165;42.664;23.368;2023-06-10T12:04:20;5.60;;;4.53;;
61291;SDS011;47165;42.664;23.368;2023-06-10T12:06:47;5.15;;;4.05;;
61291;SDS011;47165;42.664;23.368;2023-06-10T12:09:15;7.90;;;4.05;;
61291;SDS011;47165;42.664;23.368;2023-06-10T12:11:41;5.65;;;3.50;;
61291;SDS011;47165;42.664;23.368;2023-06-10T12:14:09;6.25;;;3.30;;
61291;SDS011;47165;42.664;23.368;2023-06-10T12:16:34;4.45;;;3.22;;
61291;SDS011;47165;42.664;23.368;2023-06-10T12:19:03;5.93;;;3.75;;
61291;SDS011;47165;42.664;23.368;2023-06-10T12:21:31;4.88;;;2.80;;
61291;SDS011;47165;42.664;23.368;2023-06-10T12:24:10;5.85;;;3.30;;
61291;SDS011;47165;42.664;23.368;2023-06-10T12:26:40;5.05;;;2.78;;
61291;SDS011;47165;42.664;23.368;2023-06-10T12:29:23;7.93;;;2.88;;
61291;SDS011;47165;42.664;23.368;2023-06-10T12:31:56;4.40;;;2.80;;
61291;SDS011;47165;42.664;23.368;2023-06-10T12:34:37;5.03;;;3.35;;
61291;SDS011;47165;42.664;23.368;2023-06-10T12:37:04;6.07;;;3.80;;
61291;SDS011;47165;42.664;23.368;2023-06-10T12:39:31;4.13;;;3.47;;
61291;SDS011;47165;42.664;23.368;2023-06-10T12:41:58;9.13;;;3.75;;
61291;SDS011;47165;42.664;23.368;2023-06-10T12:44:34;3.95;;;3.30;;
61291;SDS011;47165;42.664;23.368;2023-06-10T12:47:00;4.47;;;2.80;;
61291;SDS011;47165;42.664;23.368;2023-06-10T12:49:32;5.28;;;3.17;;
61291;SDS011;47165;42.664;23.368;2023-06-10T12:51:57;5.85;;;2.60;;
61291;SDS011;47165;42.664;23.368;2023-06-10T12:54:23;3.35;;;2.60;;
61291;SDS011;47165;42.664;23.368;2023-06-10T12:56:49;5.43;;;2.90;;
61291;SDS011;47165;42.664;23.368;2023-06-10T12:59:14;8.57;;;3.60;;
61291;SDS011;47165;42.664;23.368;2023-06-10T13:01:39;5.25;;;3.25;;
61291;SDS011;47165;42.664;23.368;2023-06-10T13:04:05;4.38;;;3.22;;
61291;SDS011;47165;42.664;23.368;2023-06-10T13:06:33;6.07;;;4.18;;
61291;SDS011;47165;42.664;23.368;2023-06-10T13:09:02;5.53;;;3.58;;
61291;SDS011;47165;42.664;23.368;2023-06-10T13:11:28;3.95;;;2.58;;
61291;SDS011;47165;42.664;23.368;2023-06-10T13:13:53;5.13;;;3.20;;
61291;SDS011;47165;42.664;23.368;2023-06-10T13:16:19;8.02;;;2.72;;
61291;SDS011;47165;42.664;23.368;2023-06-10T13:18:44;7.38;;;4.80;;
61291;SDS011;47165;42.664;23.368;2023-06-10T13:21:09;7.05;;;3.90;;
61291;SDS011;47165;42.664;23.368;2023-06-10T13:23:35;4.25;;;2.80;;
61291;SDS011;47165;42.664;23.368;2023-06-10T13:26:00;7.80;;;2.65;;
61291;SDS011;47165;42.664;23.368;2023-06-10T13:28:27;4.32;;;2.50;;
61291;SDS011;47165;42.664;23.368;2023-06-10T13:30:52;5.03;;;2.53;;
61291;SDS011;47165;42.664;23.368;2023-06-10T13:33:18;6.05;;;3.28;;
61291;SDS011;47165;42.664;23.368;2023-06-10T13:35:43;5.78;;;2.97;;
61291;SDS011;47165;42.664;23.368;2023-06-10T13:38:09;6.28;;;3.08;;
61291;SDS011;47165;42.664;23.368;2023-06-10T13:40:34;11.02;;;3.13;;
61291;SDS011;47165;42.664;23.368;2023-06-10T13:43:00;4.20;;;3.15;;
61291;SDS011;47165;42.664;23.368;2023-06-10T13:45:25;7.05;;;3.45;;
61291;SDS011;47165;42.664;23.368;2023-06-10T13:47:51;5.80;;;3.65;;
61291;SDS011;47165;42.664;23.368;2023-06-10T13:50:16;7.13;;;3.33;;
61291;SDS011;47165;42.664;23.368;2023-06-10T13:52:42;7.20;;;3.83;;
61291;SDS011;47165;42.664;23.368;2023-06-10T13:55:08;6.22;;;3.65;;
61291;SDS011;47165;42.664;23.368;2023-06-10T13:57:34;6.72;;;3.30;;
61291;SDS011;47165;42.664;23.368;2023-06-10T14:00:00;4.88;;;3.42;;
61291;SDS011;47165;42.664;23.368;2023-06-10T14:02:26;5.88;;;3.58;;
61291;SDS011;47165;42.664;23.368;2023-06-10T14:04:51;8.52;;;3.63;;
61291;SDS011;47165;42.664;23.368;2023-06-10T14:07:17;5.57;;;2.83;;
61291;SDS011;47165;42.664;23.368;2023-06-10T14:09:43;7.40;;;3.72;;
61291;SDS011;47165;42.664;23.368;2023-06-10T14:12:09;5.60;;;3.90;;
61291;SDS011;47165;42.664;23.368;2023-06-10T14:14:36;5.78;;;3.30;;
61291;SDS011;47165;42.664;23.368;2023-06-10T14:17:02;6.53;;;2.80;;
61291;SDS011;47165;42.664;23.368;2023-06-10T14:19:29;5.65;;;3.50;;
61291;SDS011;47165;42.664;23.368;2023-06-10T14:21:55;4.40;;;3.10;;
61291;SDS011;47165;42.664;23.368;2023-06-10T14:24:21;3.40;;;3.10;;
61291;SDS011;47165;42.664;23.368;2023-06-10T14:26:46;8.25;;;3.85;;
61291;SDS011;47165;42.664;23.368;2023-06-10T14:29:12;4.55;;;3.60;;
61291;SDS011;47165;42.664;23.368;2023-06-10T14:31:39;8.13;;;5.05;;
61291;SDS011;47165;42.664;23.368;2023-06-10T14:34:05;6.97;;;3.47;;
61291;SDS011;47165;42.664;23.368;2023-06-10T14:36:32;4.32;;;3.08;;
61291;SDS011;47165;42.664;23.368;2023-06-10T14:38:58;5.30;;;3.05;;
61291;SDS011;47165;42.664;23.368;2023-06-10T14:41:23;5.35;;;2.30;;
61291;SDS011;47165;42.664;23.368;2023-06-10T14:43:49;3.95;;;2.83;;
61291;SDS011;47165;42.664;23.368;2023-06-10T14:46:15;6.93;;;2.33;;